메인 페이지
METAR-TAF:

METAR-TAF

공항 :

샌디에이고 / North Island, 캘리포니아, 미국

위도: 32-41-27N, 경도: 117-12-32W, 고도: 7m

현재 날씨관측

예보는 56분 전, 05:52시(UTC)에 발표되었습니다.
북서6kt
온도 17°C
습도 94%
기압 1011 hPa
시정: 16.1km
고도 1300ft 상공 구름 많음

METAR: KNZY 200552Z AUTO 32006KT 10SM BKN013 17/16 A2985 RMK AO2 SLP106 T01720156 10194 20172 51004

시각: 23:48 (06:48 UTC)

예보

예보 대상 시간: 18일 23시부터 19일 23시까지 (UTC)
남서11kt
시정 10km 이상
고도 1700ft 상공 구름 많음
전환 중
19일 01시부터 19일 03시까지 (UTC)
여러 방향의 바람 4kt
시정 10km 이상
고도 1400ft 상공 흐림
전환 중
19일 16시부터 19일 18시까지 (UTC)
남남서10kt
시정: 0151m
고도 2000ft 상공 구름 조금

TAF: KNZY 1823/1923 22011KT 9999 BKN017 QNH2972INS BECMG 1901/1903 VRB04KT 9999 OVC014 QNH2974INS BECMG 1916/1918 21010KT 9999 FEW020 QNH2971INS LAST NO AMDS AFT 1905 NEXT 2007 TX21/1922Z TN17/1912Z COR 0151 FS30222

4,000개 이상의 공항 관측 자료 및 예보 (METAR 및 TAF 보고).

지도상에서 검색 가능한 기상관측소가 노란 점과 빨간 점으로 표시되어 있습니다.

기상관측소 명을 보려면 표시 위로 마우스를 이동하세요.

날씨 관측과 예보를 보려면 클릭하세요.

지도 변경 : 확대하려면 엑스 표시가 있는 녹색 버튼, 축소하려면 빼기 표시가 있는 녹색 버튼, 다음 페이지의 지도를 보려면 녹색 화살표를 클릭하세요.


METAR-TAF: